sensor_id;sensor_type;location;lat;lon;timestamp;temperature;humidity
35313;DHT22;21425;50.454;30.466;2022-07-29T00:00:18;17.70;94.30
35313;DHT22;21425;50.454;30.466;2022-07-29T00:02:43;17.70;94.30
35313;DHT22;21425;50.454;30.466;2022-07-29T00:05:09;18.50;94.50
35313;DHT22;21425;50.454;30.466;2022-07-29T00:07:35;17.80;94.80
35313;DHT22;21425;50.454;30.466;2022-07-29T00:10:00;17.70;95.30
35313;DHT22;21425;50.454;30.466;2022-07-29T00:12:26;17.70;95.20
35313;DHT22;21425;50.454;30.466;2022-07-29T00:14:52;17.80;95.20
35313;DHT22;21425;50.454;30.466;2022-07-29T00:17:18;18.10;95.40
35313;DHT22;21425;50.454;30.466;2022-07-29T00:19:43;17.70;95.40
35313;DHT22;21425;50.454;30.466;2022-07-29T00:22:09;14.60;94.60
35313;DHT22;21425;50.454;30.466;2022-07-29T00:24:34;17.70;96.00
35313;DHT22;21425;50.454;30.466;2022-07-29T00:27:00;17.70;96.10
35313;DHT22;21425;50.454;30.466;2022-07-29T00:29:25;18.30;96.30
35313;DHT22;21425;50.454;30.466;2022-07-29T00:31:50;17.70;96.50
35313;DHT22;21425;50.454;30.466;2022-07-29T00:34:16;17.70;96.50
35313;DHT22;21425;50.454;30.466;2022-07-29T00:37:01;18.60;96.90
35313;DHT22;21425;50.454;30.466;2022-07-29T00:39:26;13.50;96.00
35313;DHT22;21425;50.454;30.466;2022-07-29T00:41:52;17.50;97.50
35313;DHT22;21425;50.454;30.466;2022-07-29T00:44:17;17.60;98.20
35313;DHT22;21425;50.454;30.466;2022-07-29T00:46:43;17.70;98.60
35313;DHT22;21425;50.454;30.466;2022-07-29T00:49:08;17.50;98.90
35313;DHT22;21425;50.454;30.466;2022-07-29T00:51:35;17.50;99.90
35313;DHT22;21425;50.454;30.466;2022-07-29T00:54:01;17.90;99.60
35313;DHT22;21425;50.454;30.466;2022-07-29T00:56:26;17.70;99.70
35313;DHT22;21425;50.454;30.466;2022-07-29T00:58:54;16.90;99.20
35313;DHT22;21425;50.454;30.466;2022-07-29T01:01:21;18.20;99.20
35313;DHT22;21425;50.454;30.466;2022-07-29T01:03:46;14.30;98.10
35313;DHT22;21425;50.454;30.466;2022-07-29T01:06:12;17.70;98.90
35313;DHT22;21425;50.454;30.466;2022-07-29T01:08:38;17.60;99.10
35313;DHT22;21425;50.454;30.466;2022-07-29T01:11:03;17.80;99.60
35313;DHT22;21425;50.454;30.466;2022-07-29T01:13:29;17.60;99.90
35313;DHT22;21425;50.454;30.466;2022-07-29T01:15:56;17.50;99.90
35313;DHT22;21425;50.454;30.466;2022-07-29T01:18:28;17.30;99.90
35313;DHT22;21425;50.454;30.466;2022-07-29T01:31:10;17.20;99.90
35313;DHT22;21425;50.454;30.466;2022-07-29T01:33:38;12.90;99.90
35313;DHT22;21425;50.454;30.466;2022-07-29T01:36:23;17.40;99.90
35313;DHT22;21425;50.454;30.466;2022-07-29T01:38:54;17.30;99.90
35313;DHT22;21425;50.454;30.466;2022-07-29T01:41:19;17.30;99.90
35313;DHT22;21425;50.454;30.466;2022-07-29T01:43:49;16.80;99.90
35313;DHT22;21425;50.454;30.466;2022-07-29T01:46:17;17.30;99.90
35313;DHT22;21425;50.454;30.466;2022-07-29T01:48:48;17.30;99.90
35313;DHT22;21425;50.454;30.466;2022-07-29T01:51:21;17.30;99.90
35313;DHT22;21425;50.454;30.466;2022-07-29T01:53:59;17.30;99.90
35313;DHT22;21425;50.454;30.466;2022-07-29T01:56:26;16.60;99.90
35313;DHT22;21425;50.454;30.466;2022-07-29T01:58:54;17.20;99.90
35313;DHT22;21425;50.454;30.466;2022-07-29T02:01:21;17.10;99.90
35313;DHT22;21425;50.454;30.466;2022-07-29T02:03:48;17.00;99.90
35313;DHT22;21425;50.454;30.466;2022-07-29T02:06:15;17.00;99.90
35313;DHT22;21425;50.454;30.466;2022-07-29T02:08:42;16.60;99.90
35313;DHT22;21425;50.454;30.466;2022-07-29T02:11:08;13.20;99.90
35313;DHT22;21425;50.454;30.466;2022-07-29T02:13:34;18.40;99.90
35313;DHT22;21425;50.454;30.466;2022-07-29T02:16:00;17.00;99.90
35313;DHT22;21425;50.454;30.466;2022-07-29T02:18:27;16.90;99.90
35313;DHT22;21425;50.454;30.466;2022-07-29T02:20:53;17.20;99.90
35313;DHT22;21425;50.454;30.466;2022-07-29T02:23:23;16.90;99.90
35313;DHT22;21425;50.454;30.466;2022-07-29T02:25:49;16.90;99.90
35313;DHT22;21425;50.454;30.466;2022-07-29T02:28:16;16.90;99.90
35313;DHT22;21425;50.454;30.466;2022-07-29T02:30:42;15.50;99.90
35313;DHT22;21425;50.454;30.466;2022-07-29T02:33:09;16.90;99.90
35313;DHT22;21425;50.454;30.466;2022-07-29T02:35:36;16.70;99.90
35313;DHT22;21425;50.454;30.466;2022-07-29T02:38:02;17.00;99.90
35313;DHT22;21425;50.454;30.466;2022-07-29T02:40:46;17.00;99.90
35313;DHT22;21425;50.454;30.466;2022-07-29T02:43:13;17.10;99.90
35313;DHT22;21425;50.454;30.466;2022-07-29T02:45:39;16.60;99.90
35313;DHT22;21425;50.454;30.466;2022-07-29T02:48:05;17.30;99.90
35313;DHT22;21425;50.454;30.466;2022-07-29T02:50:32;17.10;99.90
35313;DHT22;21425;50.454;30.466;2022-07-29T02:53:05;17.40;99.90
35313;DHT22;21425;50.454;30.466;2022-07-29T02:55:33;17.20;99.90
35313;DHT22;21425;50.454;30.466;2022-07-29T02:58:00;17.20;99.90
35313;DHT22;21425;50.454;30.466;2022-07-29T03:00:27;16.70;99.90
35313;DHT22;21425;50.454;30.466;2022-07-29T03:02:53;17.10;99.90
35313;DHT22;21425;50.454;30.466;2022-07-29T03:05:20;17.40;99.90
35313;DHT22;21425;50.454;30.466;2022-07-29T03:07:47;17.60;99.90
35313;DHT22;21425;50.454;30.466;2022-07-29T03:10:14;17.50;99.90
35313;DHT22;21425;50.454;30.466;2022-07-29T03:12:40;17.60;99.90
35313;DHT22;21425;50.454;30.466;2022-07-29T03:15:07;17.70;99.90
35313;DHT22;21425;50.454;30.466;2022-07-29T03:17:33;17.70;99.90
35313;DHT22;21425;50.454;30.466;2022-07-29T03:19:59;18.50;99.90
35313;DHT22;21425;50.454;30.466;2022-07-29T03:22:24;17.90;99.90
35313;DHT22;21425;50.454;30.466;2022-07-29T03:24:50;18.20;99.90
35313;DHT22;21425;50.454;30.466;2022-07-29T03:27:15;16.50;99.90
35313;DHT22;21425;50.454;30.466;2022-07-29T03:29:41;18.30;99.90
35313;DHT22;21425;50.454;30.466;2022-07-29T03:32:06;18.00;99.90
35313;DHT22;21425;50.454;30.466;2022-07-29T03:34:32;18.20;99.90
35313;DHT22;21425;50.454;30.466;2022-07-29T03:36:58;18.30;99.90
35313;DHT22;21425;50.454;30.466;2022-07-29T03:39:25;18.40;99.90
35313;DHT22;21425;50.454;30.466;2022-07-29T03:41:53;18.50;99.90
35313;DHT22;21425;50.454;30.466;2022-07-29T03:44:20;18.70;99.90
35313;DHT22;21425;50.454;30.466;2022-07-29T03:46:46;18.90;99.40
35313;DHT22;21425;50.454;30.466;2022-07-29T03:49:13;18.80;99.60
35313;DHT22;21425;50.454;30.466;2022-07-29T03:51:40;18.60;99.60
35313;DHT22;21425;50.454;30.466;2022-07-29T03:54:05;18.50;99.90
35313;DHT22;21425;50.454;30.466;2022-07-29T03:56:32;19.10;99.60
35313;DHT22;21425;50.454;30.466;2022-07-29T03:58:58;18.80;99.20
35313;DHT22;21425;50.454;30.466;2022-07-29T04:01:23;19.30;99.50
35313;DHT22;21425;50.454;30.466;2022-07-29T04:03:49;19.90;99.70
35313;DHT22;21425;50.454;30.466;2022-07-29T04:06:15;19.20;99.70
35313;DHT22;21425;50.454;30.466;2022-07-29T04:08:40;19.60;99.90
35313;DHT22;21425;50.454;30.466;2022-07-29T04:11:06;19.70;99.00
35313;DHT22;21425;50.454;30.466;2022-07-29T04:13:32;19.70;98.20
35313;DHT22;21425;50.454;30.466;2022-07-29T04:15:58;20.20;99.40
35313;DHT22;21425;50.454;30.466;2022-07-29T04:18:24;20.10;97.90
35313;DHT22;21425;50.454;30.466;2022-07-29T04:20:49;19.80;97.90
35313;DHT22;21425;50.454;30.466;2022-07-29T04:23:15;20.20;97.50
35313;DHT22;21425;50.454;30.466;2022-07-29T04:25:41;20.20;97.00
35313;DHT22;21425;50.454;30.466;2022-07-29T04:28:06;20.20;96.40
35313;DHT22;21425;50.454;30.466;2022-07-29T04:30:32;20.10;96.20
35313;DHT22;21425;50.454;30.466;2022-07-29T04:32:59;20.10;95.30
35313;DHT22;21425;50.454;30.466;2022-07-29T04:35:26;20.10;94.60
35313;DHT22;21425;50.454;30.466;2022-07-29T04:37:51;20.20;95.70
35313;DHT22;21425;50.454;30.466;2022-07-29T04:40:17;20.60;94.70
35313;DHT22;21425;50.454;30.466;2022-07-29T04:42:42;20.50;94.70
35313;DHT22;21425;50.454;30.466;2022-07-29T04:45:08;20.60;94.80
35313;DHT22;21425;50.454;30.466;2022-07-29T04:47:34;20.60;95.00
35313;DHT22;21425;50.454;30.466;2022-07-29T04:49:59;20.80;94.20
35313;DHT22;21425;50.454;30.466;2022-07-29T04:52:25;20.90;92.70
35313;DHT22;21425;50.454;30.466;2022-07-29T04:54:50;20.90;92.50
35313;DHT22;21425;50.454;30.466;2022-07-29T04:57:16;21.40;91.60
35313;DHT22;21425;50.454;30.466;2022-07-29T04:59:42;21.80;90.80
35313;DHT22;21425;50.454;30.466;2022-07-29T05:02:07;21.50;89.80
35313;DHT22;21425;50.454;30.466;2022-07-29T05:04:33;21.40;89.30
35313;DHT22;21425;50.454;30.466;2022-07-29T05:06:58;21.50;89.30
35313;DHT22;21425;50.454;30.466;2022-07-29T05:09:23;21.40;88.30
35313;DHT22;21425;50.454;30.466;2022-07-29T05:11:49;21.40;86.90
35313;DHT22;21425;50.454;30.466;2022-07-29T05:14:14;21.40;87.30
35313;DHT22;21425;50.454;30.466;2022-07-29T05:16:40;20.60;85.70
35313;DHT22;21425;50.454;30.466;2022-07-29T05:19:06;21.40;84.10
35313;DHT22;21425;50.454;30.466;2022-07-29T05:21:31;21.50;83.70
35313;DHT22;21425;50.454;30.466;2022-07-29T05:23:57;21.70;80.80
35313;DHT22;21425;50.454;30.466;2022-07-29T05:26:22;21.50;79.70
35313;DHT22;21425;50.454;30.466;2022-07-29T05:28:48;22.20;79.70
35313;DHT22;21425;50.454;30.466;2022-07-29T05:31:14;22.10;79.40
35313;DHT22;21425;50.454;30.466;2022-07-29T05:33:40;22.00;76.90
35313;DHT22;21425;50.454;30.466;2022-07-29T05:36:06;22.20;76.00
35313;DHT22;21425;50.454;30.466;2022-07-29T05:38:32;22.40;76.10
35313;DHT22;21425;50.454;30.466;2022-07-29T05:40:58;22.40;73.90
35313;DHT22;21425;50.454;30.466;2022-07-29T05:43:24;22.10;74.70
35313;DHT22;21425;50.454;30.466;2022-07-29T05:45:50;22.20;74.70
35313;DHT22;21425;50.454;30.466;2022-07-29T05:48:15;22.30;74.00
35313;DHT22;21425;50.454;30.466;2022-07-29T05:50:41;22.30;72.00
35313;DHT22;21425;50.454;30.466;2022-07-29T05:53:06;22.30;71.90
35313;DHT22;21425;50.454;30.466;2022-07-29T05:55:32;22.40;71.00
35313;DHT22;21425;50.454;30.466;2022-07-29T05:57:57;18.60;66.70
35313;DHT22;21425;50.454;30.466;2022-07-29T06:00:23;22.70;68.30
35313;DHT22;21425;50.454;30.466;2022-07-29T06:02:48;22.60;67.80
35313;DHT22;21425;50.454;30.466;2022-07-29T06:05:14;22.70;67.40
35313;DHT22;21425;50.454;30.466;2022-07-29T06:07:40;22.80;67.70
35313;DHT22;21425;50.454;30.466;2022-07-29T06:10:06;23.00;65.30
35313;DHT22;21425;50.454;30.466;2022-07-29T06:12:31;22.80;66.10
35313;DHT22;21425;50.454;30.466;2022-07-29T06:14:57;22.80;66.40
35313;DHT22;21425;50.454;30.466;2022-07-29T06:17:23;22.90;64.10
35313;DHT22;21425;50.454;30.466;2022-07-29T06:19:48;23.00;62.60
35313;DHT22;21425;50.454;30.466;2022-07-29T06:22:17;22.90;61.60
35313;DHT22;21425;50.454;30.466;2022-07-29T06:24:42;23.20;60.80
35313;DHT22;21425;50.454;30.466;2022-07-29T06:27:12;23.30;60.30
35313;DHT22;21425;50.454;30.466;2022-07-29T06:29:37;23.80;60.30
35313;DHT22;21425;50.454;30.466;2022-07-29T06:32:03;23.20;59.60
35313;DHT22;21425;50.454;30.466;2022-07-29T06:34:29;23.30;59.90
35313;DHT22;21425;50.454;30.466;2022-07-29T06:36:54;23.40;59.40
35313;DHT22;21425;50.454;30.466;2022-07-29T06:39:20;23.40;58.40
35313;DHT22;21425;50.454;30.466;2022-07-29T06:41:49;23.80;58.80
35313;DHT22;21425;50.454;30.466;2022-07-29T06:44:16;23.60;58.40
35313;DHT22;21425;50.454;30.466;2022-07-29T06:46:41;23.90;57.60
35313;DHT22;21425;50.454;30.466;2022-07-29T06:49:07;23.70;57.30
35313;DHT22;21425;50.454;30.466;2022-07-29T06:51:32;23.90;57.70
35313;DHT22;21425;50.454;30.466;2022-07-29T06:53:58;23.90;57.20
35313;DHT22;21425;50.454;30.466;2022-07-29T06:56:23;24.10;57.10
35313;DHT22;21425;50.454;30.466;2022-07-29T06:58:49;24.00;56.20
35313;DHT22;21425;50.454;30.466;2022-07-29T07:01:15;23.90;56.40
35313;DHT22;21425;50.454;30.466;2022-07-29T07:03:40;24.50;56.70
35313;DHT22;21425;50.454;30.466;2022-07-29T07:06:07;24.20;55.90
35313;DHT22;21425;50.454;30.466;2022-07-29T07:08:32;24.50;56.40
35313;DHT22;21425;50.454;30.466;2022-07-29T07:10:58;24.80;56.00
35313;DHT22;21425;50.454;30.466;2022-07-29T07:13:23;24.40;56.40
35313;DHT22;21425;50.454;30.466;2022-07-29T07:15:49;24.70;55.20
35313;DHT22;21425;50.454;30.466;2022-07-29T07:18:16;24.30;55.20
35313;DHT22;21425;50.454;30.466;2022-07-29T07:20:42;24.70;54.60
35313;DHT22;21425;50.454;30.466;2022-07-29T07:23:08;23.50;53.50
35313;DHT22;21425;50.454;30.466;2022-07-29T07:25:33;24.90;55.20
35313;DHT22;21425;50.454;30.466;2022-07-29T07:27:59;24.60;54.70
35313;DHT22;21425;50.454;30.466;2022-07-29T07:30:24;24.50;55.50
35313;DHT22;21425;50.454;30.466;2022-07-29T07:32:50;23.50;54.60
35313;DHT22;21425;50.454;30.466;2022-07-29T07:35:16;24.70;54.90
35313;DHT22;21425;50.454;30.466;2022-07-29T07:37:41;25.10;55.70
35313;DHT22;21425;50.454;30.466;2022-07-29T07:40:07;24.80;55.50
35313;DHT22;21425;50.454;30.466;2022-07-29T07:42:33;24.80;55.00
35313;DHT22;21425;50.454;30.466;2022-07-29T07:44:59;25.00;54.20
35313;DHT22;21425;50.454;30.466;2022-07-29T07:47:25;22.40;51.90
35313;DHT22;21425;50.454;30.466;2022-07-29T07:49:50;25.40;52.90
35313;DHT22;21425;50.454;30.466;2022-07-29T07:52:16;25.30;52.80
35313;DHT22;21425;50.454;30.466;2022-07-29T07:54:42;25.00;53.30
35313;DHT22;21425;50.454;30.466;2022-07-29T07:57:09;25.10;53.00
35313;DHT22;21425;50.454;30.466;2022-07-29T07:59:35;24.90;53.10
35313;DHT22;21425;50.454;30.466;2022-07-29T08:02:00;24.90;53.20
35313;DHT22;21425;50.454;30.466;2022-07-29T08:04:26;21.60;51.90
35313;DHT22;21425;50.454;30.466;2022-07-29T08:06:51;25.10;53.00
35313;DHT22;21425;50.454;30.466;2022-07-29T08:09:19;25.20;51.80
35313;DHT22;21425;50.454;30.466;2022-07-29T08:11:45;25.80;51.60
35313;DHT22;21425;50.454;30.466;2022-07-29T08:14:10;25.80;50.90
35313;DHT22;21425;50.454;30.466;2022-07-29T08:16:36;25.30;51.80
35313;DHT22;21425;50.454;30.466;2022-07-29T08:19:01;25.30;51.60
35313;DHT22;21425;50.454;30.466;2022-07-29T08:21:27;25.70;50.50
35313;DHT22;21425;50.454;30.466;2022-07-29T08:23:52;26.30;50.20
35313;DHT22;21425;50.454;30.466;2022-07-29T08:26:21;26.00;50.50
35313;DHT22;21425;50.454;30.466;2022-07-29T08:28:47;26.00;50.40
35313;DHT22;21425;50.454;30.466;2022-07-29T08:31:15;26.40;50.20
35313;DHT22;21425;50.454;30.466;2022-07-29T08:33:41;26.90;49.90
35313;DHT22;21425;50.454;30.466;2022-07-29T08:36:07;27.10;49.30
35313;DHT22;21425;50.454;30.466;2022-07-29T08:38:32;27.30;48.10
35313;DHT22;21425;50.454;30.466;2022-07-29T08:40:58;25.50;46.90
35313;DHT22;21425;50.454;30.466;2022-07-29T08:43:25;27.90;48.10
35313;DHT22;21425;50.454;30.466;2022-07-29T08:45:51;28.20;46.60
35313;DHT22;21425;50.454;30.466;2022-07-29T08:48:20;26.70;44.70
35313;DHT22;21425;50.454;30.466;2022-07-29T08:50:47;28.60;45.80
35313;DHT22;21425;50.454;30.466;2022-07-29T08:53:14;28.70;44.80
35313;DHT22;21425;50.454;30.466;2022-07-29T08:55:40;28.80;44.10
35313;DHT22;21425;50.454;30.466;2022-07-29T08:58:07;28.60;43.70
35313;DHT22;21425;50.454;30.466;2022-07-29T09:00:33;28.50;43.60
35313;DHT22;21425;50.454;30.466;2022-07-29T09:03:01;28.90;44.60
35313;DHT22;21425;50.454;30.466;2022-07-29T09:05:27;28.20;44.50
35313;DHT22;21425;50.454;30.466;2022-07-29T09:07:53;28.70;44.10
35313;DHT22;21425;50.454;30.466;2022-07-29T09:10:19;29.20;43.90
35313;DHT22;21425;50.454;30.466;2022-07-29T09:12:44;29.50;43.80
35313;DHT22;21425;50.454;30.466;2022-07-29T09:15:10;28.70;43.60
35313;DHT22;21425;50.454;30.466;2022-07-29T09:17:39;28.50;43.80
35313;DHT22;21425;50.454;30.466;2022-07-29T09:20:08;28.20;44.70
35313;DHT22;21425;50.454;30.466;2022-07-29T09:22:34;26.40;43.10
35313;DHT22;21425;50.454;30.466;2022-07-29T09:24:59;27.90;44.20
35313;DHT22;21425;50.454;30.466;2022-07-29T09:27:25;28.30;43.20
35313;DHT22;21425;50.454;30.466;2022-07-29T09:30:07;28.10;43.10
35313;DHT22;21425;50.454;30.466;2022-07-29T09:32:53;28.10;44.10
35313;DHT22;21425;50.454;30.466;2022-07-29T09:35:20;28.00;45.00
35313;DHT22;21425;50.454;30.466;2022-07-29T09:37:46;28.10;44.60
35313;DHT22;21425;50.454;30.466;2022-07-29T09:40:23;27.90;46.90
35313;DHT22;21425;50.454;30.466;2022-07-29T09:42:49;27.90;45.40
35313;DHT22;21425;50.454;30.466;2022-07-29T09:45:26;27.80;45.80
35313;DHT22;21425;50.454;30.466;2022-07-29T09:47:51;28.30;44.60
35313;DHT22;21425;50.454;30.466;2022-07-29T09:50:17;28.80;44.10
35313;DHT22;21425;50.454;30.466;2022-07-29T09:52:49;29.00;43.60
35313;DHT22;21425;50.454;30.466;2022-07-29T09:55:15;27.40;43.40
35313;DHT22;21425;50.454;30.466;2022-07-29T09:57:41;28.50;44.10
35313;DHT22;21425;50.454;30.466;2022-07-29T10:00:10;28.70;44.80
35313;DHT22;21425;50.454;30.466;2022-07-29T10:02:37;28.20;44.80
35313;DHT22;21425;50.454;30.466;2022-07-29T10:05:04;28.70;43.10
35313;DHT22;21425;50.454;30.466;2022-07-29T10:07:46;28.70;43.30
35313;DHT22;21425;50.454;30.466;2022-07-29T10:10:17;28.70;42.40
35313;DHT22;21425;50.454;30.466;2022-07-29T10:12:48;29.10;42.80
35313;DHT22;21425;50.454;30.466;2022-07-29T10:15:14;28.40;42.50
35313;DHT22;21425;50.454;30.466;2022-07-29T10:17:40;29.10;42.30
35313;DHT22;21425;50.454;30.466;2022-07-29T10:20:06;25.40;38.70
35313;DHT22;21425;50.454;30.466;2022-07-29T10:22:32;28.90;40.90
35313;DHT22;21425;50.454;30.466;2022-07-29T10:24:58;28.60;41.80
35313;DHT22;21425;50.454;30.466;2022-07-29T10:27:24;28.70;42.70
35313;DHT22;21425;50.454;30.466;2022-07-29T10:29:50;27.50;43.50
35313;DHT22;21425;50.454;30.466;2022-07-29T10:38:04;27.60;43.90
35313;DHT22;21425;50.454;30.466;2022-07-29T10:43:29;28.30;44.50
35313;DHT22;21425;50.454;30.466;2022-07-29T10:45:59;28.30;43.80
35313;DHT22;21425;50.454;30.466;2022-07-29T10:48:25;28.20;44.00
35313;DHT22;21425;50.454;30.466;2022-07-29T10:51:01;28.60;42.70
35313;DHT22;21425;50.454;30.466;2022-07-29T10:56:27;28.30;43.80
35313;DHT22;21425;50.454;30.466;2022-07-29T11:01:37;26.40;39.40
35313;DHT22;21425;50.454;30.466;2022-07-29T11:04:02;29.40;41.60
35313;DHT22;21425;50.454;30.466;2022-07-29T11:07:05;28.80;41.00
35313;DHT22;21425;50.454;30.466;2022-07-29T11:09:15;29.60;42.20
35313;DHT22;21425;50.454;30.466;2022-07-29T11:11:42;29.20;41.60
35313;DHT22;21425;50.454;30.466;2022-07-29T11:14:08;29.90;40.80
35313;DHT22;21425;50.454;30.466;2022-07-29T11:17:15;29.70;41.80
35313;DHT22;21425;50.454;30.466;2022-07-29T11:19:22;29.70;40.40
35313;DHT22;21425;50.454;30.466;2022-07-29T11:21:48;29.40;40.30
35313;DHT22;21425;50.454;30.466;2022-07-29T11:24:20;29.60;40.70
35313;DHT22;21425;50.454;30.466;2022-07-29T11:27:05;29.30;40.80
35313;DHT22;21425;50.454;30.466;2022-07-29T11:29:31;29.00;41.20
35313;DHT22;21425;50.454;30.466;2022-07-29T11:32:07;29.70;40.70
35313;DHT22;21425;50.454;30.466;2022-07-29T11:34:33;29.50;41.00
35313;DHT22;21425;50.454;30.466;2022-07-29T11:47:19;30.70;39.10
35313;DHT22;21425;50.454;30.466;2022-07-29T11:49:45;31.90;38.20
35313;DHT22;21425;50.454;30.466;2022-07-29T11:52:10;32.00;37.50
35313;DHT22;21425;50.454;30.466;2022-07-29T11:54:36;31.50;37.60
35313;DHT22;21425;50.454;30.466;2022-07-29T11:57:02;30.90;38.20
35313;DHT22;21425;50.454;30.466;2022-07-29T11:59:27;30.50;39.40
35313;DHT22;21425;50.454;30.466;2022-07-29T12:01:57;30.60;39.20
35313;DHT22;21425;50.454;30.466;2022-07-29T12:04:23;30.80;39.00
35313;DHT22;21425;50.454;30.466;2022-07-29T12:06:52;31.20;37.80
35313;DHT22;21425;50.454;30.466;2022-07-29T12:09:18;32.30;35.60
35313;DHT22;21425;50.454;30.466;2022-07-29T12:11:45;33.60;34.30
35313;DHT22;21425;50.454;30.466;2022-07-29T12:14:29;34.60;32.30
35313;DHT22;21425;50.454;30.466;2022-07-29T12:16:55;33.30;33.10
35313;DHT22;21425;50.454;30.466;2022-07-29T12:19:21;33.60;33.90
35313;DHT22;21425;50.454;30.466;2022-07-29T12:21:47;32.50;34.90
35313;DHT22;21425;50.454;30.466;2022-07-29T12:24:13;32.50;34.60
35313;DHT22;21425;50.454;30.466;2022-07-29T12:26:55;30.80;35.90
35313;DHT22;21425;50.454;30.466;2022-07-29T12:29:21;30.50;38.70
35313;DHT22;21425;50.454;30.466;2022-07-29T12:31:50;30.70;39.10
35313;DHT22;21425;50.454;30.466;2022-07-29T12:34:19;31.30;37.40
35313;DHT22;21425;50.454;30.466;2022-07-29T12:36:45;32.20;35.10
35313;DHT22;21425;50.454;30.466;2022-07-29T12:39:11;32.00;35.00
35313;DHT22;21425;50.454;30.466;2022-07-29T12:41:37;33.00;34.60
35313;DHT22;21425;50.454;30.466;2022-07-29T12:44:04;34.70;32.20
35313;DHT22;21425;50.454;30.466;2022-07-29T12:46:29;33.30;30.20
35313;DHT22;21425;50.454;30.466;2022-07-29T12:48:55;36.70;29.90
35313;DHT22;21425;50.454;30.466;2022-07-29T12:51:27;35.90;28.90
35313;DHT22;21425;50.454;30.466;2022-07-29T12:54:14;35.40;30.40
35313;DHT22;21425;50.454;30.466;2022-07-29T12:56:41;33.30;33.80
35313;DHT22;21425;50.454;30.466;2022-07-29T12:59:14;32.60;33.90
35313;DHT22;21425;50.454;30.466;2022-07-29T13:01:39;32.50;33.60
35313;DHT22;21425;50.454;30.466;2022-07-29T13:04:05;31.60;35.30
35313;DHT22;21425;50.454;30.466;2022-07-29T13:06:32;30.90;36.90
35313;DHT22;21425;50.454;30.466;2022-07-29T13:08:59;30.30;39.30
35313;DHT22;21425;50.454;30.466;2022-07-29T13:11:31;30.00;40.00
35313;DHT22;21425;50.454;30.466;2022-07-29T13:13:57;29.70;40.40
35313;DHT22;21425;50.454;30.466;2022-07-29T13:16:22;29.30;41.20
35313;DHT22;21425;50.454;30.466;2022-07-29T13:18:48;29.30;41.50
35313;DHT22;21425;50.454;30.466;2022-07-29T13:21:14;28.80;41.90
35313;DHT22;21425;50.454;30.466;2022-07-29T13:23:40;28.60;42.40
35313;DHT22;21425;50.454;30.466;2022-07-29T13:26:09;28.50;42.50
35313;DHT22;21425;50.454;30.466;2022-07-29T13:28:35;28.50;42.40
35313;DHT22;21425;50.454;30.466;2022-07-29T13:31:00;29.10;42.20
35313;DHT22;21425;50.454;30.466;2022-07-29T13:33:26;28.80;42.20
35313;DHT22;21425;50.454;30.466;2022-07-29T13:35:51;29.10;42.50
35313;DHT22;21425;50.454;30.466;2022-07-29T13:38:17;28.50;42.10
35313;DHT22;21425;50.454;30.466;2022-07-29T13:40:42;28.40;42.60
35313;DHT22;21425;50.454;30.466;2022-07-29T13:43:09;28.60;42.70
35313;DHT22;21425;50.454;30.466;2022-07-29T13:45:35;28.70;42.60
35313;DHT22;21425;50.454;30.466;2022-07-29T13:48:01;28.60;42.50
35313;DHT22;21425;50.454;30.466;2022-07-29T13:50:26;28.60;42.40
35313;DHT22;21425;50.454;30.466;2022-07-29T13:52:52;29.10;42.70
35313;DHT22;21425;50.454;30.466;2022-07-29T13:55:18;29.50;42.00
35313;DHT22;21425;50.454;30.466;2022-07-29T13:57:43;28.60;42.30
35313;DHT22;21425;50.454;30.466;2022-07-29T14:00:09;28.10;44.50
35313;DHT22;21425;50.454;30.466;2022-07-29T14:02:35;28.10;44.90
35313;DHT22;21425;50.454;30.466;2022-07-29T14:05:01;27.90;43.60
35313;DHT22;21425;50.454;30.466;2022-07-29T14:07:26;28.00;43.00
35313;DHT22;21425;50.454;30.466;2022-07-29T14:09:51;28.90;44.10
35313;DHT22;21425;50.454;30.466;2022-07-29T14:12:17;29.20;43.20
35313;DHT22;21425;50.454;30.466;2022-07-29T14:14:43;29.50;41.60
35313;DHT22;21425;50.454;30.466;2022-07-29T14:17:08;29.10;41.10
35313;DHT22;21425;50.454;30.466;2022-07-29T14:19:34;30.20;40.80
35313;DHT22;21425;50.454;30.466;2022-07-29T14:22:04;30.90;39.70
35313;DHT22;21425;50.454;30.466;2022-07-29T14:24:30;30.00;38.20
35313;DHT22;21425;50.454;30.466;2022-07-29T14:26:56;31.70;38.20
35313;DHT22;21425;50.454;30.466;2022-07-29T14:29:22;33.60;36.10
35313;DHT22;21425;50.454;30.466;2022-07-29T14:31:47;35.30;33.50
35313;DHT22;21425;50.454;30.466;2022-07-29T14:34:13;37.10;30.60
35313;DHT22;21425;50.454;30.466;2022-07-29T14:36:40;36.70;29.90
35313;DHT22;21425;50.454;30.466;2022-07-29T14:39:06;32.40;29.30
35313;DHT22;21425;50.454;30.466;2022-07-29T14:41:31;36.10;31.50
35313;DHT22;21425;50.454;30.466;2022-07-29T14:43:57;36.00;30.00
35313;DHT22;21425;50.454;30.466;2022-07-29T14:46:26;37.80;29.50
35313;DHT22;21425;50.454;30.466;2022-07-29T14:48:51;37.90;29.40
35313;DHT22;21425;50.454;30.466;2022-07-29T14:51:17;38.40;28.50
35313;DHT22;21425;50.454;30.466;2022-07-29T14:53:42;37.30;28.50
35313;DHT22;21425;50.454;30.466;2022-07-29T14:56:08;37.60;28.60
35313;DHT22;21425;50.454;30.466;2022-07-29T14:58:34;36.00;29.40
35313;DHT22;21425;50.454;30.466;2022-07-29T15:00:59;34.50;32.00
35313;DHT22;21425;50.454;30.466;2022-07-29T15:03:26;32.80;34.40
35313;DHT22;21425;50.454;30.466;2022-07-29T15:05:53;31.80;36.50
35313;DHT22;21425;50.454;30.466;2022-07-29T15:08:18;33.10;36.30
35313;DHT22;21425;50.454;30.466;2022-07-29T15:10:44;34.80;31.90
35313;DHT22;21425;50.454;30.466;2022-07-29T15:13:09;34.70;31.70
35313;DHT22;21425;50.454;30.466;2022-07-29T15:15:35;35.00;31.20
35313;DHT22;21425;50.454;30.466;2022-07-29T15:18:00;35.40;31.60
35313;DHT22;21425;50.454;30.466;2022-07-29T15:20:26;36.60;30.40
35313;DHT22;21425;50.454;30.466;2022-07-29T15:22:52;36.30;30.40
35313;DHT22;21425;50.454;30.466;2022-07-29T15:25:18;36.90;29.90
35313;DHT22;21425;50.454;30.466;2022-07-29T15:27:44;37.30;29.60
35313;DHT22;21425;50.454;30.466;2022-07-29T15:30:10;37.90;28.90
35313;DHT22;21425;50.454;30.466;2022-07-29T15:32:35;38.40;28.30
35313;DHT22;21425;50.454;30.466;2022-07-29T15:35:01;38.40;28.40
35313;DHT22;21425;50.454;30.466;2022-07-29T15:37:26;37.30;28.30
35313;DHT22;21425;50.454;30.466;2022-07-29T15:39:53;36.90;29.10
35313;DHT22;21425;50.454;30.466;2022-07-29T15:42:19;37.40;29.00
35313;DHT22;21425;50.454;30.466;2022-07-29T15:44:44;37.80;28.70
35313;DHT22;21425;50.454;30.466;2022-07-29T15:47:10;37.80;28.60